createdAt,value
2023-04-18T00:01:21.499Z,10.73
2023-04-18T00:03:54.375Z,8.10
2023-04-18T00:06:29.880Z,8.48
2023-04-18T00:09:03.180Z,8.73
2023-04-18T00:11:36.004Z,6.85
2023-04-18T00:14:10.407Z,7.32
2023-04-18T00:16:43.300Z,6.88
2023-04-18T00:19:16.174Z,7.57
2023-04-18T00:21:53.060Z,7.13
2023-04-18T00:24:25.915Z,6.88
2023-04-18T00:26:58.865Z,8.10
2023-04-18T00:29:32.677Z,8.75
2023-04-18T00:32:06.082Z,7.20
2023-04-18T00:34:40.301Z,7.72
2023-04-18T00:37:14.453Z,7.65
2023-04-18T00:39:48.147Z,7.25
2023-04-18T00:42:21.538Z,6.38
2023-04-18T00:44:54.452Z,6.97
2023-04-18T00:47:27.317Z,6.47
2023-04-18T00:50:01.088Z,9.40
2023-04-18T00:52:35.855Z,5.55
2023-04-18T00:55:09.805Z,6.93
2023-04-18T00:57:43.259Z,5.73
2023-04-18T01:00:16.565Z,5.85
2023-04-18T01:02:53.275Z,7.18
2023-04-18T01:05:27.454Z,8.68
2023-04-18T01:08:01.882Z,7.25
2023-04-18T01:10:34.874Z,6.03
2023-04-18T01:13:12.154Z,6.53
2023-04-18T01:15:46.877Z,9.38
2023-04-18T01:18:20.813Z,5.75
2023-04-18T01:20:54.789Z,7.22
2023-04-18T01:23:29.508Z,5.63
2023-04-18T01:26:04.081Z,6.53
2023-04-18T01:28:38.051Z,6.40
2023-04-18T01:31:10.934Z,6.37
2023-04-18T01:33:43.819Z,6.03
2023-04-18T01:36:16.875Z,6.07
2023-04-18T01:38:49.716Z,5.85
2023-04-18T01:41:24.255Z,7.05
2023-04-18T01:43:57.259Z,5.20
2023-04-18T01:46:30.233Z,7.53
2023-04-18T01:49:03.322Z,5.55
2023-04-18T01:51:36.327Z,4.80
2023-04-18T01:54:09.382Z,5.90
2023-04-18T01:56:43.534Z,5.97
2023-04-18T01:59:16.445Z,9.32
2023-04-18T02:01:50.624Z,6.03
2023-04-18T02:04:23.666Z,5.90
2023-04-18T02:06:56.504Z,5.47
2023-04-18T02:09:29.894Z,7.30
2023-04-18T02:12:04.145Z,5.85
2023-04-18T02:14:37.377Z,7.18
2023-04-18T02:17:10.268Z,6.03
2023-04-18T02:19:43.024Z,7.07
2023-04-18T02:22:15.879Z,6.05
2023-04-18T02:24:48.723Z,5.95
2023-04-18T02:27:22.961Z,6.95
2023-04-18T02:29:55.753Z,6.55
2023-04-18T02:32:28.705Z,4.72
2023-04-18T02:35:01.724Z,5.78
2023-04-18T02:37:34.928Z,6.03
2023-04-18T02:40:09.258Z,5.55
2023-04-18T02:42:43.591Z,6.25
2023-04-18T02:45:20.346Z,6.28
2023-04-18T02:47:55.987Z,5.95
2023-04-18T02:50:29.995Z,5.30
2023-04-18T02:53:03.910Z,6.78
2023-04-18T02:55:48.764Z,8.02
2023-04-18T02:58:23.887Z,7.68
2023-04-18T03:01:27.308Z,5.40
2023-04-18T03:04:05.295Z,5.53
2023-04-18T03:06:42.764Z,5.00
2023-04-18T03:09:16.149Z,5.90
2023-04-18T03:11:53.520Z,5.85
2023-04-18T03:14:32.427Z,5.75
2023-04-18T03:17:05.824Z,6.45
2023-04-18T03:19:44.917Z,6.03
2023-04-18T03:22:20.010Z,5.95
2023-04-18T03:25:03.057Z,7.00
2023-04-18T03:27:56.267Z,5.47
2023-04-18T03:30:32.472Z,7.13
2023-04-18T03:33:06.643Z,5.90
2023-04-18T03:35:39.716Z,5.70
2023-04-18T03:38:13.232Z,4.78
2023-04-18T03:40:46.245Z,6.85
2023-04-18T03:43:27.241Z,6.13
2023-04-18T03:46:01.871Z,5.47
2023-04-18T03:51:14.763Z,6.50
2023-04-18T03:53:47.775Z,5.60
2023-04-18T03:58:58.611Z,7.38
2023-04-18T04:01:32.826Z,6.18
2023-04-18T04:04:06.306Z,6.22
2023-04-18T04:06:39.172Z,7.55
2023-04-18T04:09:12.019Z,6.13
2023-04-18T04:11:45.931Z,6.13
2023-04-18T04:14:20.150Z,5.55
2023-04-18T04:16:54.411Z,7.25
2023-04-18T04:19:28.315Z,6.70
2023-04-18T04:22:11.839Z,5.97
2023-04-18T04:24:46.725Z,7.13
2023-04-18T04:27:22.643Z,6.35
2023-04-18T04:29:56.604Z,6.73
2023-04-18T04:32:30.818Z,7.60
2023-04-18T04:35:04.358Z,7.03
2023-04-18T04:37:38.593Z,6.43
2023-04-18T04:40:24.127Z,6.57
2023-04-18T04:43:05.745Z,6.95
2023-04-18T04:45:43.460Z,6.93
2023-04-18T04:48:18.737Z,7.38
2023-04-18T04:50:56.858Z,8.15
2023-04-18T04:53:31.261Z,6.60
2023-04-18T04:56:07.077Z,7.15
2023-04-18T04:58:40.453Z,7.32
2023-04-18T05:01:18.013Z,6.65
2023-04-18T05:03:52.720Z,6.80
2023-04-18T05:06:26.419Z,7.72
2023-04-18T05:09:00.885Z,8.02
2023-04-18T05:11:33.736Z,7.35
2023-04-18T05:14:06.809Z,8.48
2023-04-18T05:16:39.711Z,7.63
2023-04-18T05:19:14.204Z,9.07
2023-04-18T05:21:47.009Z,7.82
2023-04-18T05:24:20.335Z,8.45
2023-04-18T05:26:53.219Z,7.97
2023-04-18T05:29:26.415Z,8.52
2023-04-18T05:31:59.440Z,7.75
2023-04-18T05:34:37.355Z,9.55
2023-04-18T05:37:11.761Z,11.45
2023-04-18T05:39:45.253Z,9.50
2023-04-18T05:42:18.068Z,8.75
2023-04-18T05:44:50.901Z,9.02
2023-04-18T05:47:26.730Z,9.43
2023-04-18T05:50:01.692Z,11.20
2023-04-18T05:52:34.602Z,9.75
2023-04-18T05:55:09.658Z,8.68
2023-04-18T05:57:43.351Z,8.95
2023-04-18T06:00:17.713Z,9.43
2023-04-18T06:02:50.894Z,10.70
2023-04-18T06:05:25.609Z,7.20
2023-04-18T06:07:58.694Z,7.43
2023-04-18T06:10:31.448Z,8.30
2023-04-18T06:13:04.279Z,7.93
2023-04-18T06:15:37.168Z,10.55
2023-04-18T06:18:10.003Z,9.70
2023-04-18T06:20:45.207Z,10.98
2023-04-18T06:23:18.112Z,9.73
2023-04-18T06:25:51.190Z,9.77
2023-04-18T06:28:24.169Z,10.10
2023-04-18T06:30:57.334Z,8.98
2023-04-18T06:33:30.896Z,6.55
2023-04-18T06:36:07.287Z,8.60
2023-04-18T06:38:40.144Z,8.32
2023-04-18T06:41:13.908Z,10.00
2023-04-18T06:43:59.801Z,9.80
2023-04-18T06:46:36.118Z,8.85
2023-04-18T06:49:08.976Z,10.98
2023-04-18T06:51:43.185Z,9.48
2023-04-18T06:54:16.221Z,10.15
2023-04-18T06:56:49.133Z,10.00
2023-04-18T06:59:23.315Z,9.23
2023-04-18T07:01:56.354Z,9.13
2023-04-18T07:04:29.405Z,9.27
2023-04-18T07:07:05.071Z,11.13
2023-04-18T07:09:38.147Z,11.68
2023-04-18T07:12:10.971Z,10.15
2023-04-18T07:14:43.768Z,10.70
2023-04-18T07:17:17.731Z,9.90
2023-04-18T07:19:50.769Z,10.70
2023-04-18T07:22:25.029Z,9.32
2023-04-18T07:24:57.832Z,10.82
2023-04-18T07:27:30.762Z,9.82
2023-04-18T07:30:04.215Z,10.80
2023-04-18T07:32:38.011Z,8.82
2023-04-18T07:35:11.410Z,10.05
2023-04-18T07:37:45.764Z,9.65
2023-04-18T07:40:19.115Z,8.95
2023-04-18T07:42:51.905Z,9.35
2023-04-18T07:45:25.000Z,8.55
2023-04-18T07:47:57.874Z,11.70
2023-04-18T07:50:30.775Z,9.40
2023-04-18T07:53:05.014Z,8.98
2023-04-18T07:55:37.832Z,8.25
2023-04-18T07:58:11.050Z,10.88
2023-04-18T08:00:44.743Z,10.85
2023-04-18T08:03:17.772Z,8.35
2023-04-18T08:05:51.626Z,10.85
2023-04-18T08:08:25.846Z,9.68
2023-04-18T08:10:58.645Z,11.00
2023-04-18T08:13:31.506Z,9.98
2023-04-18T08:16:04.440Z,8.38
2023-04-18T08:18:37.349Z,10.38
2023-04-18T08:21:10.285Z,10.23
2023-04-18T08:23:44.438Z,9.70
2023-04-18T08:26:17.364Z,9.88
2023-04-18T08:28:50.423Z,10.38
2023-04-18T08:31:23.418Z,9.73
2023-04-18T08:33:56.392Z,9.55
2023-04-18T08:36:29.186Z,11.48
2023-04-18T08:39:03.456Z,11.20
2023-04-18T08:41:38.048Z,10.02
2023-04-18T08:44:10.890Z,9.98
2023-04-18T08:46:44.006Z,10.23
2023-04-18T08:49:17.581Z,9.90
2023-04-18T08:51:52.866Z,11.57
2023-04-18T08:54:30.560Z,9.88
2023-04-18T08:57:07.376Z,11.80
2023-04-18T08:59:43.160Z,15.10
2023-04-18T09:02:17.802Z,12.70
2023-04-18T09:04:53.313Z,9.07
2023-04-18T09:07:29.594Z,11.18
2023-04-18T09:10:04.103Z,8.68
2023-04-18T09:12:49.957Z,10.48
2023-04-18T09:15:26.721Z,11.52
2023-04-18T09:18:02.680Z,11.95
2023-04-18T09:20:37.747Z,10.55
2023-04-18T09:23:14.423Z,10.40
2023-04-18T09:25:52.045Z,12.15
2023-04-18T09:28:27.879Z,9.63
2023-04-18T09:31:09.085Z,10.88
2023-04-18T09:33:46.908Z,12.52
2023-04-18T09:36:21.292Z,10.55
2023-04-18T09:38:57.043Z,11.40
2023-04-18T09:41:32.630Z,11.18
2023-04-18T09:44:14.955Z,11.63
2023-04-18T09:46:49.279Z,12.27
2023-04-18T09:49:23.661Z,11.55
2023-04-18T09:51:57.217Z,10.90
2023-04-18T09:54:33.768Z,11.52
2023-04-18T09:57:11.988Z,12.20
2023-04-18T09:59:50.192Z,9.90
2023-04-18T10:02:24.376Z,13.57
2023-04-18T10:05:00.678Z,12.45
2023-04-18T10:07:33.981Z,11.35
2023-04-18T10:10:08.281Z,13.18
2023-04-18T10:12:43.057Z,11.63
2023-04-18T10:18:04.375Z,11.93
2023-04-18T10:20:41.985Z,12.43
2023-04-18T10:23:35.764Z,11.05
2023-04-18T10:26:09.353Z,12.35
2023-04-18T10:28:54.241Z,11.88
2023-04-18T10:31:28.881Z,15.25
2023-04-18T10:34:05.589Z,12.93
2023-04-18T10:37:05.124Z,12.32
2023-04-18T10:40:00.081Z,13.68
2023-04-18T10:43:00.288Z,14.48
2023-04-18T10:45:36.507Z,13.85
2023-04-18T10:48:26.017Z,12.32
2023-04-18T10:51:19.198Z,13.60
2023-04-18T10:53:55.057Z,16.10
2023-04-18T10:56:29.169Z,13.93
2023-04-18T10:59:04.165Z,13.10
2023-04-18T11:01:41.503Z,16.15
2023-04-18T11:04:15.546Z,13.32
2023-04-18T11:06:50.289Z,14.48
2023-04-18T11:09:23.393Z,14.60
2023-04-18T11:12:07.375Z,14.73
2023-04-18T11:14:41.315Z,14.85
2023-04-18T11:17:23.552Z,18.60
2023-04-18T11:20:06.917Z,15.55
2023-04-18T11:22:48.101Z,15.52
2023-04-18T11:25:25.070Z,16.15
2023-04-18T11:28:00.347Z,16.50
2023-04-18T11:30:38.221Z,16.38
2023-04-18T11:33:13.796Z,14.95
2023-04-18T11:35:47.367Z,16.58
2023-04-18T11:38:21.695Z,14.98
2023-04-18T11:40:56.119Z,16.05
2023-04-18T11:43:29.026Z,13.45
2023-04-18T11:46:02.069Z,15.40
2023-04-18T11:48:36.990Z,15.10
2023-04-18T11:51:33.963Z,15.73
2023-04-18T11:54:06.873Z,14.15
2023-04-18T11:56:49.996Z,15.02
2023-04-18T11:59:23.654Z,14.10
2023-04-18T12:02:14.867Z,15.55
2023-04-18T12:04:56.015Z,14.52
2023-04-18T12:07:37.311Z,13.55
2023-04-18T12:10:24.373Z,15.38
2023-04-18T12:12:59.634Z,14.10
2023-04-18T12:15:33.572Z,15.55
2023-04-18T12:18:08.333Z,14.93
2023-04-18T12:23:33.712Z,14.13
2023-04-18T12:26:08.187Z,13.32
2023-04-18T12:28:45.196Z,14.20
2023-04-18T12:31:18.161Z,15.82
2023-04-18T12:33:51.310Z,13.48
2023-04-18T12:36:26.428Z,14.43
2023-04-18T12:39:02.739Z,15.30
2023-04-18T12:41:35.615Z,13.45
2023-04-18T12:44:12.077Z,13.35
2023-04-18T12:46:45.205Z,13.07
2023-04-18T12:49:18.081Z,13.00
2023-04-18T12:51:52.249Z,14.70
2023-04-18T12:54:25.600Z,13.32
2023-04-18T12:56:58.629Z,13.85
2023-04-18T12:59:31.490Z,12.98
2023-04-18T13:02:05.108Z,13.55
2023-04-18T13:04:38.265Z,12.77
2023-04-18T13:07:12.996Z,12.77
2023-04-18T13:09:47.148Z,14.50
2023-04-18T13:12:20.057Z,13.55
2023-04-18T13:14:52.957Z,13.23
2023-04-18T13:17:25.881Z,15.27
2023-04-18T13:19:58.903Z,13.15
2023-04-18T13:22:33.749Z,15.18
2023-04-18T13:25:10.345Z,13.32
2023-04-18T13:27:43.156Z,13.95
2023-04-18T13:30:16.074Z,13.00
2023-04-18T13:32:49.057Z,13.70
2023-04-18T13:35:22.067Z,13.73
2023-04-18T13:37:58.441Z,12.68
2023-04-18T13:40:33.365Z,12.70
2023-04-18T13:43:06.183Z,12.85
2023-04-18T13:45:38.964Z,12.18
2023-04-18T13:48:12.864Z,12.82
2023-04-18T13:50:46.668Z,13.05
2023-04-18T13:53:21.421Z,11.95
2023-04-18T13:55:54.366Z,11.70
2023-04-18T13:58:27.259Z,12.27
2023-04-18T14:01:03.130Z,12.48
2023-04-18T14:03:38.385Z,12.43
2023-04-18T14:06:12.277Z,11.98
2023-04-18T14:08:46.537Z,11.85
2023-04-18T14:11:19.643Z,12.68
2023-04-18T14:13:52.417Z,11.82
2023-04-18T14:16:25.510Z,12.82
2023-04-18T14:18:58.423Z,11.73
2023-04-18T14:21:31.545Z,12.23
2023-04-18T14:24:06.728Z,12.68
2023-04-18T14:26:39.565Z,11.13
2023-04-18T14:29:14.146Z,10.82
2023-04-18T14:31:47.393Z,11.55
2023-04-18T14:34:20.382Z,11.75
2023-04-18T14:36:53.184Z,11.35
2023-04-18T14:39:27.411Z,10.75
2023-04-18T14:42:01.322Z,12.82
2023-04-18T14:44:34.534Z,11.35
2023-04-18T14:47:07.489Z,12.23
2023-04-18T14:49:40.359Z,11.57
2023-04-18T14:52:14.094Z,11.73
2023-04-18T14:54:48.285Z,11.80
2023-04-18T14:57:21.101Z,11.90
2023-04-18T14:59:54.722Z,10.30
2023-04-18T15:02:27.793Z,10.80
2023-04-18T15:05:00.870Z,11.40
2023-04-18T15:07:33.831Z,10.55
2023-04-18T15:10:12.469Z,10.77
2023-04-18T15:12:46.672Z,11.48
2023-04-18T15:15:20.709Z,12.07
2023-04-18T15:17:53.785Z,10.43
2023-04-18T15:20:26.823Z,10.55
2023-04-18T15:22:59.796Z,11.52
2023-04-18T15:25:35.006Z,10.80
2023-04-18T15:28:08.090Z,9.85
2023-04-18T15:30:41.079Z,11.40
2023-04-18T15:33:14.289Z,10.50
2023-04-18T15:35:48.119Z,12.00
2023-04-18T15:38:21.398Z,8.90
2023-04-18T15:40:55.596Z,8.73
2023-04-18T15:43:28.617Z,10.38
2023-04-18T15:46:01.466Z,8.75
2023-04-18T15:48:36.227Z,8.77
2023-04-18T15:51:09.069Z,8.73
2023-04-18T15:53:41.917Z,8.55
2023-04-18T15:56:16.269Z,9.20
2023-04-18T15:58:49.088Z,8.98
2023-04-18T16:01:22.798Z,9.95
2023-04-18T16:03:55.711Z,8.93
2023-04-18T16:06:31.153Z,9.10
2023-04-18T16:09:06.519Z,8.70
2023-04-18T16:11:40.820Z,8.90
2023-04-18T16:14:13.862Z,9.00
2023-04-18T16:16:46.934Z,9.20
2023-04-18T16:19:20.396Z,8.05
2023-04-18T16:21:53.426Z,9.25
2023-04-18T16:24:26.415Z,8.23
2023-04-18T16:27:00.737Z,7.93
2023-04-18T16:32:08.005Z,8.50
2023-04-18T16:34:40.820Z,8.35
2023-04-18T16:37:13.719Z,8.15
2023-04-18T16:39:46.714Z,8.65
2023-04-18T16:42:21.054Z,7.07
2023-04-18T16:44:56.851Z,8.30
2023-04-18T16:47:30.266Z,8.20
2023-04-18T16:50:03.173Z,7.15
2023-04-18T16:52:36.148Z,7.97
2023-04-18T16:55:09.801Z,7.78
2023-04-18T16:57:44.448Z,7.50
2023-04-18T17:00:18.297Z,7.32
2023-04-18T17:02:51.237Z,7.75
2023-04-18T17:05:25.912Z,7.90
2023-04-18T17:07:59.201Z,8.07
2023-04-18T17:10:32.454Z,7.45
2023-04-18T17:13:07.033Z,8.38
2023-04-18T17:15:40.005Z,7.28
2023-04-18T17:18:13.100Z,7.38
2023-04-18T17:20:46.030Z,8.18
2023-04-18T17:23:19.001Z,7.90
2023-04-18T17:25:51.882Z,7.28
2023-04-18T17:28:26.067Z,8.70
2023-04-18T17:30:58.865Z,6.75
2023-04-18T17:33:31.786Z,7.30
2023-04-18T17:36:08.352Z,7.18
2023-04-18T17:38:41.305Z,6.57
2023-04-18T17:41:14.139Z,7.00
2023-04-18T17:43:50.588Z,7.30
2023-04-18T17:46:23.497Z,6.82
2023-04-18T17:48:58.914Z,7.32
2023-04-18T17:51:32.140Z,7.45
2023-04-18T17:54:05.506Z,7.15
2023-04-18T17:56:38.371Z,7.00
2023-04-18T17:59:13.613Z,7.88
2023-04-18T18:01:47.144Z,7.30
2023-04-18T18:04:23.556Z,7.20
2023-04-18T18:06:58.817Z,7.07
2023-04-18T18:09:31.968Z,7.85
2023-04-18T18:12:05.888Z,8.00
2023-04-18T18:14:41.181Z,6.78
2023-04-18T18:17:14.033Z,6.90
2023-04-18T18:19:47.276Z,7.70
2023-04-18T18:22:21.344Z,7.70
2023-04-18T18:24:54.292Z,7.43
2023-04-18T18:27:27.212Z,7.85
2023-04-18T18:30:01.485Z,14.50
2023-04-18T18:35:07.915Z,7.32
2023-04-18T18:37:40.983Z,7.15
2023-04-18T18:40:14.026Z,7.40
2023-04-18T18:42:49.262Z,7.90
2023-04-18T18:45:23.732Z,7.55
2023-04-18T18:47:56.715Z,7.18
2023-04-18T18:50:29.562Z,5.63
2023-04-18T18:53:02.642Z,7.00
2023-04-18T18:55:35.466Z,7.43
2023-04-18T18:58:08.317Z,7.38
2023-04-18T19:00:42.505Z,6.90
2023-04-18T19:03:16.808Z,6.32
2023-04-18T19:05:49.849Z,7.78
2023-04-18T19:08:22.825Z,8.00
2023-04-18T19:10:55.841Z,6.88
2023-04-18T19:13:28.963Z,7.95
2023-04-18T19:16:03.276Z,6.93
2023-04-18T19:18:36.680Z,7.22
2023-04-18T19:21:09.579Z,7.07
2023-04-18T19:23:43.031Z,7.45
2023-04-18T19:26:15.910Z,7.22
2023-04-18T19:28:48.817Z,8.88
2023-04-18T19:31:23.518Z,8.57
2023-04-18T19:33:56.375Z,7.10
2023-04-18T19:36:29.185Z,7.45
2023-04-18T19:39:01.974Z,8.10
2023-04-18T19:41:34.765Z,8.40
2023-04-18T19:44:07.539Z,7.13
2023-04-18T19:46:41.746Z,6.38
2023-04-18T19:49:14.870Z,7.97
2023-04-18T19:51:48.820Z,7.20
2023-04-18T19:54:22.087Z,7.70
2023-04-18T19:56:55.230Z,8.13
2023-04-18T19:59:28.202Z,7.90
2023-04-18T20:02:05.207Z,8.25
2023-04-18T20:04:40.500Z,8.55
2023-04-18T20:07:13.505Z,7.68
2023-04-18T20:09:46.354Z,8.70
2023-04-18T20:12:19.265Z,8.25
2023-04-18T20:14:52.449Z,8.60
2023-04-18T20:17:27.556Z,8.50
2023-04-18T20:20:00.663Z,8.15
2023-04-18T20:22:33.469Z,11.15
2023-04-18T20:25:06.893Z,9.15
2023-04-18T20:36:20.994Z,8.65
2023-04-18T20:41:26.910Z,8.48
2023-04-18T20:43:59.805Z,9.07
2023-04-18T20:46:33.453Z,9.02
2023-04-18T20:49:07.730Z,10.35
2023-04-18T20:51:42.201Z,8.90
2023-04-18T20:54:15.379Z,8.65
2023-04-18T20:56:48.368Z,10.23
2023-04-18T20:59:21.333Z,10.10
2023-04-18T21:01:54.503Z,10.20
2023-04-18T21:04:27.909Z,9.50
2023-04-18T21:07:02.221Z,10.60
2023-04-18T21:09:36.527Z,8.68
2023-04-18T21:12:09.464Z,11.70
2023-04-18T21:14:42.549Z,9.82
2023-04-18T21:17:17.337Z,10.68
2023-04-18T21:19:50.736Z,11.07
2023-04-18T21:22:24.869Z,12.35
2023-04-18T21:24:57.898Z,11.77
2023-04-18T21:27:31.186Z,12.90
2023-04-18T21:30:05.236Z,10.73
2023-04-18T21:32:38.150Z,12.18
2023-04-18T21:35:11.460Z,11.48
2023-04-18T21:37:45.666Z,10.02
2023-04-18T21:40:19.151Z,12.88
2023-04-18T21:42:52.020Z,10.70
2023-04-18T21:45:25.805Z,9.98
2023-04-18T21:47:58.632Z,10.10
2023-04-18T21:50:31.443Z,10.85
2023-04-18T21:53:05.796Z,10.73
2023-04-18T21:55:38.623Z,10.18
2023-04-18T21:58:11.411Z,11.23
2023-04-18T22:00:44.244Z,10.65
2023-04-18T22:03:17.366Z,9.93
2023-04-18T22:05:52.143Z,9.25
2023-04-18T22:08:26.611Z,10.93
2023-04-18T22:11:00.188Z,15.00
2023-04-18T22:13:33.741Z,10.80
2023-04-18T22:16:08.091Z,10.80
2023-04-18T22:18:41.042Z,12.27
2023-04-18T22:21:13.831Z,11.45
2023-04-18T22:23:55.288Z,10.88
2023-04-18T22:26:28.121Z,9.18
2023-04-18T22:29:01.228Z,14.50
2023-04-18T22:31:34.122Z,12.25
2023-04-18T22:34:06.984Z,11.20
2023-04-18T22:36:39.831Z,12.38
2023-04-18T22:39:14.066Z,12.20
2023-04-18T22:41:46.860Z,10.30
2023-04-18T22:44:19.854Z,11.40
2023-04-18T22:46:54.437Z,12.00
2023-04-18T22:49:27.494Z,10.77
2023-04-18T22:52:01.318Z,11.77
2023-04-18T22:54:39.286Z,12.80
2023-04-18T22:57:12.135Z,11.43
2023-04-18T22:59:44.895Z,11.98
2023-04-18T23:02:17.792Z,11.63
2023-04-18T23:04:50.910Z,12.65
2023-04-18T23:07:23.815Z,11.40
2023-04-18T23:09:58.040Z,14.07
2023-04-18T23:12:30.835Z,13.13
2023-04-18T23:15:03.616Z,14.30
2023-04-18T23:17:37.485Z,14.65
2023-04-18T23:20:12.310Z,12.73
2023-04-18T23:22:46.478Z,10.55
2023-04-18T23:25:20.980Z,12.52
2023-04-18T23:27:53.791Z,13.75
2023-04-18T23:30:27.080Z,13.98
2023-04-18T23:32:59.935Z,12.93
2023-04-18T23:35:32.824Z,11.73
2023-04-18T23:38:05.801Z,13.98
2023-04-18T23:40:39.978Z,10.98
2023-04-18T23:43:13.031Z,12.23
2023-04-18T23:45:45.852Z,15.02
2023-04-18T23:48:18.758Z,11.35
2023-04-18T23:50:52.793Z,11.48
2023-04-18T23:53:25.766Z,12.68
2023-04-18T23:55:59.954Z,13.07
2023-04-18T23:58:32.877Z,13.10
